createdAt,value
2022-11-26T00:01:21.239Z,9.75
2022-11-26T00:03:49.232Z,9.43
2022-11-26T00:06:45.239Z,8.15
2022-11-26T00:09:18.848Z,8.60
2022-11-26T00:11:45.689Z,7.47
2022-11-26T00:14:14.929Z,7.18
2022-11-26T00:16:42.881Z,7.05
2022-11-26T00:19:10.262Z,9.00
2022-11-26T00:21:40.563Z,11.88
2022-11-26T00:24:22.796Z,10.82
2022-11-26T00:26:49.913Z,7.95
2022-11-26T00:29:16.859Z,6.68
2022-11-26T00:31:44.052Z,6.32
2022-11-26T00:34:10.934Z,5.88
2022-11-26T00:36:38.301Z,5.80
2022-11-26T00:39:17.358Z,5.55
2022-11-26T00:41:48.974Z,5.85
2022-11-26T00:44:21.869Z,5.72
2022-11-26T00:46:49.418Z,5.57
2022-11-26T00:49:17.625Z,5.22
2022-11-26T00:51:46.585Z,5.43
2022-11-26T00:54:17.179Z,5.10
2022-11-26T00:56:44.477Z,5.65
2022-11-26T00:59:18.934Z,5.03
2022-11-26T01:01:46.302Z,5.45
2022-11-26T01:04:13.192Z,5.15
2022-11-26T01:06:43.016Z,5.05
2022-11-26T01:09:17.953Z,5.53
2022-11-26T01:11:45.091Z,5.70
2022-11-26T01:14:17.880Z,5.60
2022-11-26T01:16:46.213Z,6.15
2022-11-26T01:19:15.193Z,5.80
2022-11-26T01:21:42.519Z,5.30
2022-11-26T01:24:09.827Z,4.60
2022-11-26T01:26:44.580Z,4.45
2022-11-26T01:29:19.689Z,4.85
2022-11-26T01:31:47.308Z,4.65
2022-11-26T01:34:14.322Z,5.03
2022-11-26T01:36:41.873Z,4.93
2022-11-26T01:39:20.975Z,4.40
2022-11-26T01:42:07.341Z,3.97
2022-11-26T01:44:36.984Z,4.40
2022-11-26T01:47:27.446Z,3.65
2022-11-26T01:50:28.225Z,4.20
2022-11-26T01:53:05.212Z,4.00
2022-11-26T01:55:39.888Z,3.72
2022-11-26T01:58:10.662Z,3.88
2022-11-26T02:00:37.785Z,4.97
2022-11-26T02:03:05.477Z,4.10
2022-11-26T02:05:38.945Z,5.13
2022-11-26T02:08:06.514Z,4.30
2022-11-26T02:10:34.528Z,4.20
2022-11-26T02:13:02.052Z,3.97
2022-11-26T02:15:40.072Z,3.83
2022-11-26T02:18:09.534Z,4.10
2022-11-26T02:20:48.186Z,4.35
2022-11-26T02:23:32.396Z,4.13
2022-11-26T02:26:23.845Z,3.65
2022-11-26T02:29:22.182Z,4.40
2022-11-26T02:32:15.957Z,4.28
2022-11-26T02:34:54.863Z,4.78
2022-11-26T02:37:50.316Z,3.63
2022-11-26T02:40:17.372Z,4.25
2022-11-26T02:42:44.204Z,4.72
2022-11-26T02:45:16.309Z,4.13
2022-11-26T02:47:46.107Z,3.72
2022-11-26T02:50:19.265Z,3.47
2022-11-26T02:52:47.836Z,4.20
2022-11-26T02:55:17.158Z,3.88
2022-11-26T02:57:51.692Z,4.00
2022-11-26T03:00:19.160Z,3.30
2022-11-26T03:02:58.487Z,3.28
2022-11-26T03:05:27.322Z,3.00
2022-11-26T03:07:55.330Z,3.60
2022-11-26T03:10:29.817Z,2.97
2022-11-26T03:12:57.117Z,3.00
2022-11-26T03:15:24.312Z,2.78
2022-11-26T03:17:51.628Z,2.90
2022-11-26T03:20:18.673Z,2.47
2022-11-26T03:22:45.546Z,2.38
2022-11-26T03:25:12.477Z,2.10
2022-11-26T03:27:39.359Z,2.40
2022-11-26T03:30:08.731Z,2.30
2022-11-26T03:32:35.964Z,2.58
2022-11-26T03:35:03.249Z,2.75
2022-11-26T03:37:30.170Z,1.95
2022-11-26T03:39:57.264Z,2.75
2022-11-26T03:42:24.452Z,2.03
2022-11-26T03:44:51.403Z,2.20
2022-11-26T03:47:18.177Z,2.47
2022-11-26T03:49:45.038Z,2.13
2022-11-26T03:52:12.050Z,1.83
2022-11-26T03:54:39.037Z,2.30
2022-11-26T03:57:06.065Z,2.13
2022-11-26T03:59:32.931Z,2.22
2022-11-26T04:02:00.012Z,2.08
2022-11-26T04:04:26.812Z,1.70
2022-11-26T04:06:53.600Z,1.60
2022-11-26T04:09:20.449Z,2.20
2022-11-26T04:11:47.279Z,2.05
2022-11-26T04:14:14.142Z,2.00
2022-11-26T04:16:41.095Z,1.60
2022-11-26T04:19:07.969Z,1.63
2022-11-26T04:21:34.761Z,1.38
2022-11-26T04:24:01.497Z,1.55
2022-11-26T04:26:29.775Z,2.35
2022-11-26T04:28:56.674Z,1.77
2022-11-26T04:31:23.579Z,2.15
2022-11-26T04:33:50.414Z,1.77
2022-11-26T04:36:17.230Z,2.03
2022-11-26T04:38:44.223Z,2.17
2022-11-26T04:41:11.058Z,1.85
2022-11-26T04:43:38.105Z,2.20
2022-11-26T04:46:05.493Z,2.20
2022-11-26T04:48:32.421Z,1.92
2022-11-26T04:50:59.247Z,1.98
2022-11-26T04:53:26.054Z,1.63
2022-11-26T04:55:53.242Z,1.77
2022-11-26T04:58:21.220Z,2.10
2022-11-26T05:00:50.839Z,2.10
2022-11-26T05:03:18.814Z,1.70
2022-11-26T05:05:46.985Z,1.70
2022-11-26T05:08:14.056Z,2.38
2022-11-26T05:10:41.072Z,1.65
2022-11-26T05:13:07.943Z,1.50
2022-11-26T05:15:34.797Z,1.58
2022-11-26T05:18:01.652Z,1.70
2022-11-26T05:20:28.563Z,2.60
2022-11-26T05:22:55.392Z,2.65
2022-11-26T05:25:22.275Z,2.40
2022-11-26T05:27:49.189Z,1.70
2022-11-26T05:30:16.260Z,1.42
2022-11-26T05:32:43.161Z,1.77
2022-11-26T05:35:10.771Z,2.38
2022-11-26T05:37:37.733Z,2.15
2022-11-26T05:40:05.985Z,2.85
2022-11-26T05:42:32.980Z,3.67
2022-11-26T05:45:00.381Z,3.00
2022-11-26T05:47:27.360Z,2.33
2022-11-26T05:49:54.814Z,3.55
2022-11-26T05:52:21.817Z,2.97
2022-11-26T05:54:48.800Z,2.33
2022-11-26T05:57:15.613Z,2.88
2022-11-26T05:59:43.135Z,2.38
2022-11-26T06:02:10.382Z,2.60
2022-11-26T06:07:18.140Z,2.50
2022-11-26T06:09:46.089Z,2.10
2022-11-26T06:12:12.918Z,4.10
2022-11-26T06:14:43.167Z,4.65
2022-11-26T06:17:10.720Z,3.22
2022-11-26T06:19:37.796Z,3.42
2022-11-26T06:22:04.987Z,3.17
2022-11-26T06:24:32.234Z,3.10
2022-11-26T06:26:59.150Z,3.30
2022-11-26T06:29:28.126Z,2.85
2022-11-26T06:31:55.627Z,3.10
2022-11-26T06:34:23.003Z,3.30
2022-11-26T06:36:49.887Z,2.78
2022-11-26T06:39:16.923Z,2.38
2022-11-26T06:41:43.971Z,2.83
2022-11-26T06:44:16.505Z,2.28
2022-11-26T06:46:43.476Z,3.08
2022-11-26T06:49:10.938Z,2.40
2022-11-26T06:51:38.237Z,2.72
2022-11-26T06:54:05.133Z,3.38
2022-11-26T06:56:32.036Z,2.70
2022-11-26T06:58:59.050Z,3.42
2022-11-26T07:01:27.454Z,3.08
2022-11-26T07:03:54.953Z,3.75
2022-11-26T07:06:26.085Z,4.30
2022-11-26T07:08:54.766Z,8.73
2022-11-26T07:11:22.925Z,3.88
2022-11-26T07:13:50.156Z,2.60
2022-11-26T07:16:18.682Z,2.38
2022-11-26T07:18:57.897Z,2.15
2022-11-26T07:21:29.317Z,1.73
2022-11-26T07:24:00.341Z,2.60
2022-11-26T07:26:27.347Z,2.50
2022-11-26T07:28:54.626Z,2.17
2022-11-26T07:31:24.251Z,2.03
2022-11-26T07:33:51.818Z,3.35
2022-11-26T07:36:24.285Z,1.50
2022-11-26T07:38:53.799Z,2.75
2022-11-26T07:41:21.358Z,2.20
2022-11-26T07:43:48.921Z,2.75
2022-11-26T07:46:18.571Z,2.42
2022-11-26T07:48:46.255Z,1.83
2022-11-26T07:51:18.896Z,2.03
2022-11-26T07:53:46.646Z,2.80
2022-11-26T07:56:13.680Z,1.67
2022-11-26T07:58:40.515Z,1.33
2022-11-26T08:01:35.172Z,2.22
2022-11-26T08:04:06.205Z,3.35
2022-11-26T08:06:33.616Z,3.03
2022-11-26T08:09:02.986Z,1.80
2022-11-26T08:11:32.312Z,3.30
2022-11-26T08:14:08.570Z,1.67
2022-11-26T08:16:35.897Z,2.67
2022-11-26T08:19:11.082Z,2.08
2022-11-26T08:21:39.561Z,1.52
2022-11-26T08:24:07.979Z,1.73
2022-11-26T08:26:39.732Z,1.52
2022-11-26T08:29:16.200Z,3.22
2022-11-26T08:31:46.510Z,2.72
2022-11-26T08:34:15.467Z,19.83
2022-11-26T08:36:44.771Z,16.58
2022-11-26T08:39:19.038Z,4.10
2022-11-26T08:41:50.542Z,1.60
2022-11-26T08:44:20.126Z,1.40
2022-11-26T08:46:47.082Z,1.48
2022-11-26T08:49:15.122Z,1.42
2022-11-26T08:51:43.415Z,2.25
2022-11-26T08:54:11.001Z,1.40
2022-11-26T08:56:37.948Z,1.75
2022-11-26T08:59:06.157Z,1.27
2022-11-26T09:01:34.644Z,2.47
2022-11-26T09:04:02.928Z,1.50
2022-11-26T09:06:31.736Z,1.20
2022-11-26T09:09:12.811Z,1.67
2022-11-26T09:11:42.196Z,1.10
2022-11-26T09:14:11.075Z,2.35
2022-11-26T09:16:38.653Z,2.47
2022-11-26T09:19:07.122Z,2.85
2022-11-26T09:21:36.993Z,1.90
2022-11-26T09:24:04.352Z,2.50
2022-11-26T09:26:32.826Z,2.55
2022-11-26T09:29:00.552Z,3.00
2022-11-26T09:31:27.527Z,2.53
2022-11-26T09:33:59.110Z,2.40
2022-11-26T09:36:26.302Z,2.53
2022-11-26T09:38:57.904Z,1.30
2022-11-26T09:41:49.159Z,0.68
2022-11-26T09:44:20.933Z,0.17
2022-11-26T09:47:18.459Z,0.82
2022-11-26T09:50:11.305Z,0.30
2022-11-26T09:55:50.274Z,0.55
2022-11-26T09:58:27.057Z,0.37
2022-11-26T10:00:57.957Z,0.40
2022-11-26T10:03:35.114Z,0.68
2022-11-26T10:06:07.901Z,0.57
2022-11-26T10:08:40.738Z,0.70
2022-11-26T10:11:32.257Z,0.10
2022-11-26T10:14:14.736Z,0.32
2022-11-26T10:17:00.382Z,0.32
2022-11-26T10:19:46.843Z,0.30
2022-11-26T10:22:23.619Z,0.30
2022-11-26T10:24:53.121Z,1.33
2022-11-26T10:27:24.730Z,0.40
2022-11-26T10:29:59.643Z,0.47
2022-11-26T10:32:39.649Z,0.52
2022-11-26T10:35:07.202Z,0.50
2022-11-26T10:37:36.896Z,0.40
2022-11-26T10:40:28.946Z,0.30
2022-11-26T10:43:10.927Z,0.30
2022-11-26T10:45:42.628Z,0.20
2022-11-26T10:48:22.225Z,0.25
2022-11-26T10:51:04.924Z,2.22
2022-11-26T10:53:48.052Z,0.35
2022-11-26T10:56:19.782Z,0.30
2022-11-26T10:58:49.292Z,0.40
2022-11-26T11:01:16.748Z,0.60
2022-11-26T11:04:13.874Z,0.60
2022-11-26T11:06:43.080Z,0.38
2022-11-26T11:09:31.393Z,0.30
2022-11-26T11:12:11.194Z,0.30
2022-11-26T11:14:45.523Z,0.82
2022-11-26T11:17:42.237Z,0.17
2022-11-26T11:20:14.959Z,0.35
2022-11-26T11:22:45.954Z,0.20
2022-11-26T11:25:25.221Z,0.45
2022-11-26T11:27:54.483Z,0.45
2022-11-26T11:30:25.562Z,0.25
2022-11-26T11:32:56.600Z,0.40
2022-11-26T11:35:27.180Z,0.43
2022-11-26T11:37:55.946Z,0.50
2022-11-26T11:40:27.545Z,0.40
2022-11-26T11:42:56.168Z,0.50
2022-11-26T11:45:32.448Z,0.40
2022-11-26T11:48:12.779Z,0.50
2022-11-26T11:50:46.734Z,0.22
2022-11-26T11:53:45.321Z,0.35
2022-11-26T11:56:25.227Z,0.25
2022-11-26T11:59:20.478Z,0.22
2022-11-26T12:02:12.057Z,0.32
2022-11-26T12:04:57.870Z,0.38
2022-11-26T12:07:35.615Z,0.40
2022-11-26T12:10:15.427Z,0.57
2022-11-26T12:13:08.585Z,0.63
2022-11-26T12:15:52.066Z,0.60
2022-11-26T12:18:57.219Z,1.08
2022-11-26T12:21:46.165Z,0.40
2022-11-26T12:24:22.956Z,0.50
2022-11-26T12:26:59.054Z,0.22
2022-11-26T12:29:34.660Z,0.38
2022-11-26T12:32:26.490Z,0.50
2022-11-26T12:34:57.307Z,1.00
2022-11-26T12:37:31.412Z,0.73
2022-11-26T12:40:21.832Z,1.15
2022-11-26T12:43:00.631Z,0.88
2022-11-26T12:45:42.910Z,0.80
2022-11-26T12:48:31.562Z,0.60
2022-11-26T12:51:13.590Z,0.40
2022-11-26T12:53:49.805Z,0.70
2022-11-26T12:56:43.355Z,0.57
2022-11-26T12:59:33.463Z,1.05
2022-11-26T13:02:28.008Z,1.55
2022-11-26T13:04:56.348Z,0.80
2022-11-26T13:07:53.304Z,0.95
2022-11-26T13:10:32.057Z,1.05
2022-11-26T13:13:28.875Z,0.98
2022-11-26T13:16:34.809Z,0.60
2022-11-26T13:19:13.614Z,0.90
2022-11-26T13:21:40.443Z,0.80
2022-11-26T13:24:31.428Z,1.02
2022-11-26T13:27:24.271Z,1.40
2022-11-26T13:30:03.008Z,0.90
2022-11-26T13:32:47.820Z,0.80
2022-11-26T13:35:23.025Z,1.30
2022-11-26T13:38:08.637Z,0.77
2022-11-26T13:40:53.579Z,1.30
2022-11-26T13:43:42.101Z,1.38
2022-11-26T13:46:19.014Z,1.00
2022-11-26T13:48:55.720Z,1.02
2022-11-26T13:51:33.196Z,1.17
2022-11-26T13:54:16.135Z,0.95
2022-11-26T13:56:44.299Z,1.10
2022-11-26T13:59:21.650Z,0.88
2022-11-26T14:01:51.210Z,1.02
2022-11-26T14:04:23.982Z,1.48
2022-11-26T14:07:05.819Z,1.63
2022-11-26T14:09:44.613Z,1.52
2022-11-26T14:12:12.657Z,1.10
2022-11-26T14:14:44.067Z,1.45
2022-11-26T14:17:13.657Z,0.90
2022-11-26T14:19:40.364Z,1.10
2022-11-26T14:22:23.618Z,1.10
2022-11-26T14:24:53.085Z,1.10
2022-11-26T14:27:54.890Z,0.98
2022-11-26T14:30:23.052Z,1.10
2022-11-26T14:33:03.259Z,1.10
2022-11-26T14:35:35.860Z,1.80
2022-11-26T14:38:06.012Z,1.55
2022-11-26T14:40:35.466Z,1.55
2022-11-26T14:43:20.654Z,1.75
2022-11-26T14:45:58.941Z,3.17
2022-11-26T14:48:28.773Z,1.85
2022-11-26T14:50:59.338Z,1.80
2022-11-26T14:53:32.390Z,1.80
2022-11-26T14:56:00.171Z,1.38
2022-11-26T14:58:53.499Z,1.83
2022-11-26T15:01:26.204Z,2.20
2022-11-26T15:04:01.558Z,2.63
2022-11-26T15:06:40.737Z,2.20
2022-11-26T15:09:16.426Z,2.50
2022-11-26T15:11:52.601Z,3.08
2022-11-26T15:14:25.342Z,2.65
2022-11-26T15:16:58.806Z,2.25
2022-11-26T15:19:27.068Z,2.28
2022-11-26T15:21:54.578Z,1.80
2022-11-26T15:24:21.714Z,3.00
2022-11-26T15:26:48.824Z,3.72
2022-11-26T15:29:36.158Z,3.25
2022-11-26T15:32:04.479Z,3.55
2022-11-26T15:34:33.160Z,2.15
2022-11-26T15:37:00.282Z,2.65
2022-11-26T15:39:31.966Z,4.32
2022-11-26T15:42:06.350Z,5.13
2022-11-26T15:44:42.248Z,4.75
2022-11-26T15:47:19.016Z,4.65
2022-11-26T15:49:53.096Z,5.38
2022-11-26T15:52:25.026Z,5.90
2022-11-26T15:55:12.565Z,6.90
2022-11-26T15:57:41.989Z,7.25
2022-11-26T16:00:33.829Z,6.75
2022-11-26T16:03:00.994Z,8.10
2022-11-26T16:05:38.393Z,8.82
2022-11-26T16:08:26.894Z,6.78
2022-11-26T16:11:10.151Z,4.57
2022-11-26T16:13:37.566Z,5.82
2022-11-26T16:16:04.802Z,5.13
2022-11-26T16:18:49.238Z,5.60
2022-11-26T16:21:25.233Z,5.25
2022-11-26T16:24:26.096Z,4.43
2022-11-26T16:26:52.901Z,5.18
2022-11-26T16:29:29.021Z,5.88
2022-11-26T16:31:56.693Z,8.73
2022-11-26T16:34:34.379Z,4.68
2022-11-26T16:37:20.856Z,4.82
2022-11-26T16:39:50.774Z,5.20
2022-11-26T16:42:25.485Z,4.95
2022-11-26T16:44:58.016Z,5.57
2022-11-26T16:47:51.613Z,3.90
2022-11-26T16:56:00.659Z,6.07
2022-11-26T16:58:35.532Z,5.43
2022-11-26T17:01:04.053Z,5.22
2022-11-26T17:03:35.056Z,6.10
2022-11-26T17:06:25.963Z,6.50
2022-11-26T17:08:57.914Z,7.00
2022-11-26T17:11:28.064Z,12.45
2022-11-26T17:13:56.397Z,19.45
2022-11-26T17:19:16.725Z,5.95
2022-11-26T17:24:31.523Z,6.25
2022-11-26T17:26:59.883Z,5.18
2022-11-26T17:29:42.927Z,5.03
2022-11-26T17:32:23.068Z,4.55
2022-11-26T17:34:51.493Z,6.55
2022-11-26T17:37:44.606Z,6.60
2022-11-26T17:40:14.367Z,5.35
2022-11-26T17:42:41.925Z,5.65
2022-11-26T17:45:09.592Z,5.82
2022-11-26T17:47:40.560Z,5.80
2022-11-26T17:50:13.278Z,5.47
2022-11-26T17:52:40.143Z,6.40
2022-11-26T17:55:07.571Z,7.75
2022-11-26T17:57:35.507Z,5.72
2022-11-26T18:00:02.638Z,6.22
2022-11-26T18:02:29.741Z,6.03
2022-11-26T18:04:56.702Z,5.25
2022-11-26T18:07:27.936Z,7.80
2022-11-26T18:10:02.590Z,6.15
2022-11-26T18:12:29.648Z,6.30
2022-11-26T18:14:59.311Z,11.02
2022-11-26T18:17:26.678Z,6.95
2022-11-26T18:19:53.662Z,5.07
2022-11-26T18:22:26.012Z,4.45
2022-11-26T18:24:56.921Z,7.50
2022-11-26T18:27:29.209Z,5.20
2022-11-26T18:29:56.569Z,5.45
2022-11-26T18:32:25.769Z,6.97
2022-11-26T18:34:52.778Z,7.75
2022-11-26T18:37:20.816Z,6.63
2022-11-26T18:39:47.720Z,6.25
2022-11-26T18:42:35.883Z,6.00
2022-11-26T18:45:02.558Z,5.55
2022-11-26T18:47:29.992Z,5.50
2022-11-26T18:50:01.645Z,5.50
2022-11-26T18:52:28.535Z,6.13
2022-11-26T18:54:55.480Z,8.40
2022-11-26T18:57:22.543Z,8.77
2022-11-26T18:59:50.690Z,11.23
2022-11-26T19:02:18.022Z,9.48
2022-11-26T19:04:45.082Z,10.75
2022-11-26T19:07:20.723Z,9.10
2022-11-26T19:09:49.736Z,8.75
2022-11-26T19:12:17.805Z,6.90
2022-11-26T19:14:46.100Z,6.40
2022-11-26T19:17:12.963Z,8.00
2022-11-26T19:19:40.152Z,6.20
2022-11-26T19:22:07.581Z,7.72
2022-11-26T19:24:34.678Z,6.95
2022-11-26T19:27:09.284Z,4.75
2022-11-26T19:29:36.917Z,5.43
2022-11-26T19:32:04.141Z,4.70
2022-11-26T19:34:31.524Z,4.88
2022-11-26T19:36:58.641Z,4.25
2022-11-26T19:39:25.555Z,3.03
2022-11-26T19:41:52.576Z,3.30
2022-11-26T19:44:27.247Z,3.30
2022-11-26T19:46:54.204Z,3.78
2022-11-26T19:49:21.685Z,5.32
2022-11-26T19:51:48.655Z,4.30
2022-11-26T19:54:16.205Z,4.05
2022-11-26T19:56:45.734Z,3.55
2022-11-26T19:59:13.447Z,4.47
2022-11-26T20:01:48.085Z,4.80
2022-11-26T20:04:19.957Z,3.95
2022-11-26T20:06:47.093Z,3.20
2022-11-26T20:09:16.161Z,3.70
2022-11-26T20:11:43.927Z,3.60
2022-11-26T20:14:14.121Z,4.07
2022-11-26T20:16:44.025Z,3.17
2022-11-26T20:19:22.185Z,3.83
2022-11-26T20:21:52.726Z,5.70
2022-11-26T20:24:19.650Z,7.43
2022-11-26T20:26:51.116Z,8.18
2022-11-26T20:29:21.617Z,5.25
2022-11-26T20:31:50.975Z,4.22
2022-11-26T20:34:24.001Z,3.15
2022-11-26T20:36:51.082Z,4.82
2022-11-26T20:39:21.896Z,3.53
2022-11-26T20:41:48.927Z,3.63
2022-11-26T20:44:16.178Z,4.15
2022-11-26T20:46:45.609Z,3.85
2022-11-26T20:49:12.919Z,3.85
2022-11-26T20:51:40.772Z,3.60
2022-11-26T20:54:10.004Z,4.20
2022-11-26T20:56:37.845Z,4.20
2022-11-26T20:59:04.751Z,3.45
2022-11-26T21:01:32.026Z,4.00
2022-11-26T21:04:01.231Z,3.13
2022-11-26T21:06:30.347Z,4.15
2022-11-26T21:09:03.521Z,3.28
2022-11-26T21:11:30.559Z,2.85
2022-11-26T21:14:00.012Z,2.75
2022-11-26T21:16:30.581Z,3.70
2022-11-26T21:18:58.635Z,3.15
2022-11-26T21:21:26.775Z,3.05
2022-11-26T21:26:36.164Z,3.60
2022-11-26T21:29:04.057Z,3.15
2022-11-26T21:31:32.146Z,2.88
2022-11-26T21:34:01.540Z,3.45
2022-11-26T21:36:30.156Z,3.80
2022-11-26T21:38:57.172Z,3.72
2022-11-26T21:41:25.110Z,3.30
2022-11-26T21:43:52.602Z,3.63
2022-11-26T21:46:25.543Z,4.35
2022-11-26T21:48:53.677Z,5.43
2022-11-26T21:51:21.518Z,3.22
2022-11-26T21:53:49.718Z,3.55
2022-11-26T21:56:31.664Z,2.88
2022-11-26T21:59:00.378Z,3.00
2022-11-26T22:01:37.248Z,3.33
2022-11-26T22:04:12.764Z,3.72
2022-11-26T22:06:40.003Z,2.78
2022-11-26T22:09:07.797Z,2.85
2022-11-26T22:11:38.248Z,2.38
2022-11-26T22:14:08.631Z,2.22
2022-11-26T22:16:36.263Z,2.72
2022-11-26T22:19:03.721Z,2.55
2022-11-26T22:21:41.428Z,2.20
2022-11-26T22:24:13.532Z,2.67
2022-11-26T22:26:40.849Z,2.63
2022-11-26T22:29:08.102Z,2.75
2022-11-26T22:31:37.868Z,2.83
2022-11-26T22:34:07.831Z,2.38
2022-11-26T22:36:35.168Z,2.15
2022-11-26T22:39:04.317Z,2.33
2022-11-26T22:41:32.745Z,3.00
2022-11-26T22:44:00.384Z,2.97
2022-11-26T22:46:27.748Z,3.65
2022-11-26T22:48:57.854Z,4.18
2022-11-26T22:51:26.665Z,5.07
2022-11-26T22:53:59.444Z,3.92
2022-11-26T22:56:27.535Z,4.28
2022-11-26T22:58:54.893Z,3.53
2022-11-26T23:01:24.761Z,2.60
2022-11-26T23:03:53.162Z,3.50
2022-11-26T23:06:22.665Z,2.80
2022-11-26T23:08:50.183Z,3.72
2022-11-26T23:11:25.770Z,2.67
2022-11-26T23:13:53.540Z,2.65
2022-11-26T23:16:22.510Z,3.28
2022-11-26T23:18:53.421Z,2.70
2022-11-26T23:21:29.639Z,2.67
2022-11-26T23:23:56.931Z,2.08
2022-11-26T23:26:44.215Z,2.30
2022-11-26T23:29:12.453Z,2.00
2022-11-26T23:31:45.453Z,2.10
2022-11-26T23:34:15.913Z,1.95
2022-11-26T23:36:44.541Z,2.17
2022-11-26T23:39:13.517Z,3.72
2022-11-26T23:41:40.533Z,2.10
2022-11-26T23:44:07.792Z,2.33
2022-11-26T23:46:37.997Z,2.25
2022-11-26T23:49:07.198Z,1.90
2022-11-26T23:51:34.931Z,2.42
2022-11-26T23:54:01.984Z,2.10
2022-11-26T23:56:32.549Z,1.85
2022-11-26T23:59:02.860Z,1.45
